createdAt,value
2022-07-29T00:01:43.603Z,18.90
2022-07-29T00:04:11.887Z,18.90
2022-07-29T00:06:40.592Z,18.90
2022-07-29T00:09:11.617Z,18.90
2022-07-29T00:11:39.594Z,18.90
2022-07-29T00:14:08.069Z,18.90
2022-07-29T00:16:36.739Z,18.90
2022-07-29T00:19:05.079Z,18.80
2022-07-29T00:21:33.172Z,18.70
2022-07-29T00:24:01.199Z,18.70
2022-07-29T00:26:32.895Z,18.60
2022-07-29T00:29:31.910Z,18.60
2022-07-29T00:31:50.471Z,18.70
2022-07-29T00:34:37.004Z,18.70
2022-07-29T00:37:08.037Z,18.60
2022-07-29T00:39:36.107Z,18.70
2022-07-29T00:42:05.348Z,18.70
2022-07-29T00:44:42.739Z,18.60
2022-07-29T00:47:11.959Z,18.60
2022-07-29T00:49:41.607Z,18.60
2022-07-29T00:52:10.526Z,18.50
2022-07-29T00:54:43.869Z,18.50
2022-07-29T00:57:13.333Z,18.50
2022-07-29T00:59:41.519Z,18.40
2022-07-29T01:02:09.511Z,18.50
2022-07-29T01:04:37.707Z,18.40
2022-07-29T01:07:06.127Z,18.50
2022-07-29T01:09:45.926Z,18.40
2022-07-29T01:12:16.877Z,18.40
2022-07-29T01:14:49.468Z,18.40
2022-07-29T01:17:36.235Z,18.40
2022-07-29T01:20:09.823Z,18.40
2022-07-29T01:22:55.631Z,18.30
2022-07-29T01:25:23.860Z,18.30
2022-07-29T01:28:01.124Z,18.30
2022-07-29T01:30:32.363Z,18.20
2022-07-29T01:33:05.474Z,18.30
2022-07-29T01:35:37.601Z,18.20
2022-07-29T01:38:09.659Z,18.20
2022-07-29T01:40:40.814Z,18.20
2022-07-29T01:43:11.743Z,18.20
2022-07-29T01:45:39.710Z,18.20
2022-07-29T01:48:13.596Z,18.20
2022-07-29T01:50:50.617Z,18.10
2022-07-29T01:53:42.392Z,18.10
2022-07-29T01:56:13.761Z,18.10
2022-07-29T01:58:42.985Z,18.10
2022-07-29T02:01:11.651Z,18.10
2022-07-29T02:03:40.549Z,18.00
2022-07-29T02:06:09.370Z,18.00
2022-07-29T02:08:38.874Z,18.00
2022-07-29T02:11:09.852Z,18.00
2022-07-29T02:13:38.407Z,18.00
2022-07-29T02:16:08.592Z,18.00
2022-07-29T02:18:38.209Z,18.00
2022-07-29T02:21:06.494Z,17.90
2022-07-29T02:23:51.517Z,17.90
2022-07-29T02:26:21.812Z,17.90
2022-07-29T02:28:51.432Z,17.90
2022-07-29T02:31:21.807Z,17.90
2022-07-29T02:33:50.069Z,17.80
2022-07-29T02:36:18.383Z,17.80
2022-07-29T02:39:00.125Z,17.80
2022-07-29T02:41:37.837Z,17.80
2022-07-29T02:44:07.772Z,17.80
2022-07-29T02:46:37.144Z,17.80
2022-07-29T02:49:05.352Z,17.70
2022-07-29T02:51:45.067Z,17.70
2022-07-29T02:54:20.811Z,17.70
2022-07-29T02:56:50.233Z,17.70
2022-07-29T02:59:19.612Z,17.70
2022-07-29T03:01:47.863Z,17.70
2022-07-29T03:04:17.142Z,17.70
2022-07-29T03:06:46.198Z,17.70
2022-07-29T03:09:17.387Z,17.60
2022-07-29T03:11:49.582Z,17.60
2022-07-29T03:14:22.180Z,17.60
2022-07-29T03:16:53.465Z,17.60
2022-07-29T03:19:21.816Z,17.60
2022-07-29T03:21:50.078Z,17.60
2022-07-29T03:24:27.752Z,17.60
2022-07-29T03:26:58.542Z,17.60
2022-07-29T03:29:33.045Z,17.70
2022-07-29T03:32:08.725Z,17.70
2022-07-29T03:34:41.030Z,17.60
2022-07-29T03:37:09.073Z,17.70
2022-07-29T03:39:40.456Z,17.70
2022-07-29T03:42:09.937Z,17.70
2022-07-29T03:44:38.643Z,17.60
2022-07-29T03:47:18.987Z,17.70
2022-07-29T03:49:51.811Z,17.70
2022-07-29T03:52:20.218Z,17.70
2022-07-29T03:54:51.848Z,17.70
2022-07-29T03:57:21.321Z,17.70
2022-07-29T03:59:52.452Z,17.80
2022-07-29T04:02:28.723Z,17.80
2022-07-29T04:04:59.109Z,17.80
2022-07-29T04:07:27.113Z,17.80
2022-07-29T04:09:55.231Z,17.90
2022-07-29T04:12:23.210Z,17.90
2022-07-29T04:14:59.243Z,17.90
2022-07-29T04:17:27.213Z,18.10
2022-07-29T04:19:56.033Z,18.00
2022-07-29T04:22:32.613Z,18.00
2022-07-29T04:25:03.948Z,18.10
2022-07-29T04:27:32.406Z,18.20
2022-07-29T04:30:00.361Z,18.20
2022-07-29T04:32:28.645Z,18.30
2022-07-29T04:34:56.740Z,18.40
2022-07-29T04:37:24.737Z,18.50
2022-07-29T04:39:52.804Z,18.60
2022-07-29T04:42:26.725Z,18.70
2022-07-29T04:45:07.755Z,18.80
2022-07-29T04:47:35.678Z,18.90
2022-07-29T04:50:04.330Z,19.00
2022-07-29T04:52:36.696Z,19.10
2022-07-29T04:55:05.949Z,19.20
2022-07-29T04:57:33.931Z,19.30
2022-07-29T05:00:02.446Z,19.30
2022-07-29T05:02:30.542Z,19.50
2022-07-29T05:04:58.700Z,19.60
2022-07-29T05:07:26.721Z,19.70
2022-07-29T05:09:54.935Z,19.80
2022-07-29T05:12:22.992Z,19.90
2022-07-29T05:14:51.107Z,20.00
2022-07-29T05:17:19.066Z,20.20
2022-07-29T05:19:47.068Z,20.30
2022-07-29T05:22:15.216Z,20.40
2022-07-29T05:24:43.226Z,20.60
2022-07-29T05:27:11.258Z,20.80
2022-07-29T05:29:44.918Z,20.90
2022-07-29T05:32:17.924Z,21.10
2022-07-29T05:34:51.075Z,21.20
2022-07-29T05:37:23.824Z,21.40
2022-07-29T05:39:57.213Z,21.60
2022-07-29T05:42:30.509Z,21.80
2022-07-29T05:45:01.540Z,21.90
2022-07-29T05:47:30.936Z,22.10
2022-07-29T05:49:59.087Z,22.20
2022-07-29T05:52:32.867Z,22.30
2022-07-29T05:55:05.601Z,22.50
2022-07-29T05:57:33.772Z,22.80
2022-07-29T06:00:01.849Z,22.90
2022-07-29T06:02:30.076Z,23.10
2022-07-29T06:04:58.163Z,23.10
2022-07-29T06:07:27.166Z,23.30
2022-07-29T06:09:55.143Z,23.40
2022-07-29T06:12:23.932Z,23.50
2022-07-29T06:14:54.247Z,23.70
2022-07-29T06:17:22.381Z,23.80
2022-07-29T06:19:50.451Z,24.00
2022-07-29T06:22:18.727Z,24.30
2022-07-29T06:24:46.713Z,24.60
2022-07-29T06:27:15.100Z,24.90
2022-07-29T06:29:46.214Z,25.00
2022-07-29T06:32:14.958Z,25.10
2022-07-29T06:34:43.005Z,25.30
2022-07-29T06:37:15.540Z,25.60
2022-07-29T06:39:44.059Z,25.90
2022-07-29T06:42:12.202Z,26.20
2022-07-29T06:44:40.191Z,26.40
2022-07-29T06:47:08.265Z,26.50
2022-07-29T06:49:36.607Z,26.70
2022-07-29T06:52:07.067Z,26.80
2022-07-29T06:54:35.240Z,26.90
2022-07-29T06:57:03.242Z,27.00
2022-07-29T06:59:35.567Z,27.10
2022-07-29T07:02:04.254Z,27.30
2022-07-29T07:04:32.386Z,27.40
2022-07-29T07:07:00.972Z,27.60
2022-07-29T07:09:39.994Z,27.80
2022-07-29T07:12:09.117Z,28.10
2022-07-29T07:14:37.162Z,28.20
2022-07-29T07:17:05.613Z,28.30
2022-07-29T07:19:33.777Z,28.50
2022-07-29T07:22:04.863Z,28.70
2022-07-29T07:24:33.457Z,29.00
2022-07-29T07:27:04.549Z,29.20
2022-07-29T07:29:32.515Z,29.40
2022-07-29T07:32:01.194Z,29.80
2022-07-29T07:34:32.517Z,30.00
2022-07-29T07:37:00.629Z,30.20
2022-07-29T07:39:28.551Z,30.40
2022-07-29T07:42:00.446Z,30.70
2022-07-29T07:44:28.508Z,30.80
2022-07-29T07:47:08.708Z,31.20
2022-07-29T07:49:44.377Z,31.70
2022-07-29T07:52:13.336Z,32.20
2022-07-29T07:54:45.360Z,32.60
2022-07-29T07:57:13.676Z,32.90
2022-07-29T07:59:42.230Z,33.20
2022-07-29T08:02:10.970Z,33.60
2022-07-29T08:04:42.079Z,34.00
2022-07-29T08:07:10.390Z,34.30
2022-07-29T08:09:38.354Z,34.60
2022-07-29T08:12:07.239Z,35.10
2022-07-29T08:14:35.488Z,35.30
2022-07-29T08:17:03.878Z,35.70
2022-07-29T08:19:31.956Z,36.00
2022-07-29T08:22:00.198Z,36.40
2022-07-29T08:24:55.577Z,36.80
2022-07-29T08:27:42.320Z,37.10
2022-07-29T08:30:14.497Z,37.40
2022-07-29T08:32:53.863Z,37.80
2022-07-29T08:35:26.524Z,37.90
2022-07-29T08:37:54.799Z,38.00
2022-07-29T08:40:32.412Z,38.20
2022-07-29T08:43:06.862Z,38.50
2022-07-29T08:45:44.741Z,38.80
2022-07-29T08:48:17.594Z,38.90
2022-07-29T08:50:46.764Z,39.00
2022-07-29T08:53:16.269Z,39.30
2022-07-29T08:55:45.199Z,39.70
2022-07-29T08:58:16.094Z,39.80
2022-07-29T09:00:49.301Z,39.80
2022-07-29T09:03:35.886Z,40.10
2022-07-29T09:06:04.964Z,40.10
2022-07-29T09:08:33.721Z,40.50
2022-07-29T09:11:05.361Z,40.60
2022-07-29T09:13:36.137Z,40.80
2022-07-29T09:16:09.051Z,40.90
2022-07-29T09:18:37.703Z,40.90
2022-07-29T09:21:28.334Z,41.30
2022-07-29T09:24:09.853Z,41.70
2022-07-29T09:26:41.944Z,41.70
2022-07-29T09:29:14.890Z,41.60
2022-07-29T09:31:47.588Z,41.80
2022-07-29T09:34:16.762Z,41.90
2022-07-29T09:36:45.791Z,41.90
2022-07-29T09:39:17.802Z,42.10
2022-07-29T09:41:56.176Z,42.70
2022-07-29T09:44:24.859Z,42.70
2022-07-29T09:47:09.717Z,42.50
2022-07-29T09:49:54.812Z,42.60
2022-07-29T09:52:23.011Z,42.70
2022-07-29T09:54:51.603Z,42.60
2022-07-29T09:57:30.511Z,42.90
2022-07-29T10:00:07.349Z,43.00
2022-07-29T10:02:43.920Z,43.30
2022-07-29T10:05:22.405Z,43.30
2022-07-29T10:07:53.628Z,43.80
2022-07-29T10:10:32.857Z,43.80
2022-07-29T10:13:07.794Z,43.80
2022-07-29T10:15:42.173Z,43.90
2022-07-29T10:18:10.734Z,44.00
2022-07-29T10:20:39.231Z,44.10
2022-07-29T10:23:07.390Z,43.80
2022-07-29T10:25:35.459Z,44.00
2022-07-29T10:28:04.148Z,44.00
2022-07-29T10:30:32.482Z,44.10
2022-07-29T10:33:00.377Z,44.40
2022-07-29T10:35:28.843Z,44.60
2022-07-29T10:38:21.328Z,44.80
2022-07-29T10:41:32.453Z,44.70
2022-07-29T10:44:23.293Z,45.00
2022-07-29T10:46:52.619Z,45.10
2022-07-29T10:49:24.768Z,45.20
2022-07-29T10:51:54.626Z,45.20
2022-07-29T10:54:39.650Z,45.30
2022-07-29T10:57:14.933Z,45.30
2022-07-29T10:59:44.904Z,45.10
2022-07-29T11:02:41.099Z,45.30
2022-07-29T11:05:13.181Z,45.50
2022-07-29T11:08:02.257Z,45.50
2022-07-29T11:10:31.977Z,45.60
2022-07-29T11:13:05.521Z,45.60
2022-07-29T11:15:55.423Z,45.80
2022-07-29T11:18:23.580Z,46.00
2022-07-29T11:20:54.891Z,45.90
2022-07-29T11:23:33.341Z,46.10
2022-07-29T11:29:13.407Z,46.30
2022-07-29T11:31:44.203Z,46.40
2022-07-29T11:34:20.755Z,46.50
2022-07-29T11:37:08.144Z,46.30
2022-07-29T11:39:37.791Z,44.90
2022-07-29T11:42:18.169Z,43.20
2022-07-29T11:45:08.883Z,42.10
2022-07-29T11:47:57.093Z,41.40
2022-07-29T11:50:37.108Z,40.60
2022-07-29T11:53:13.483Z,41.50
2022-07-29T11:55:50.814Z,42.90
2022-07-29T11:58:24.892Z,44.20
2022-07-29T12:03:43.597Z,45.60
2022-07-29T12:06:18.369Z,45.60
2022-07-29T12:07:03.314Z,44.90
2022-07-29T12:08:49.135Z,44.60
2022-07-29T12:11:23.415Z,43.50
2022-07-29T12:13:52.636Z,42.70
2022-07-29T12:16:27.673Z,43.10
2022-07-29T12:19:02.391Z,42.60
2022-07-29T12:21:56.502Z,41.70
2022-07-29T12:24:27.699Z,41.20
2022-07-29T12:26:57.425Z,40.70
2022-07-29T12:29:35.567Z,40.40
2022-07-29T12:32:14.528Z,40.20
2022-07-29T12:34:49.830Z,39.80
2022-07-29T12:37:19.035Z,39.30
2022-07-29T12:39:46.988Z,38.80
2022-07-29T12:42:18.637Z,38.30
2022-07-29T12:44:50.955Z,38.00
2022-07-29T12:47:19.453Z,37.60
2022-07-29T12:49:48.141Z,37.20
2022-07-29T12:52:32.558Z,37.00
2022-07-29T12:55:00.985Z,36.80
2022-07-29T12:57:29.526Z,36.80
2022-07-29T13:00:01.383Z,36.60
2022-07-29T13:02:29.559Z,36.50
2022-07-29T13:05:01.439Z,36.20
2022-07-29T13:07:54.310Z,36.00
2022-07-29T13:10:22.112Z,35.90
2022-07-29T13:13:05.506Z,35.80
2022-07-29T13:15:34.137Z,35.60
2022-07-29T13:18:02.516Z,35.50
2022-07-29T13:20:31.297Z,35.40
2022-07-29T13:22:59.787Z,35.30
2022-07-29T13:25:29.189Z,35.10
2022-07-29T13:27:57.422Z,35.20
2022-07-29T13:30:25.698Z,35.10
2022-07-29T13:32:54.425Z,35.10
2022-07-29T13:35:25.657Z,35.10
2022-07-29T13:37:55.991Z,35.20
2022-07-29T13:40:24.101Z,35.20
2022-07-29T13:42:52.180Z,35.30
2022-07-29T13:45:20.392Z,35.40
2022-07-29T13:47:49.355Z,35.40
2022-07-29T13:50:17.726Z,35.30
2022-07-29T13:52:45.856Z,35.30
2022-07-29T13:55:14.011Z,35.10
2022-07-29T13:57:44.734Z,35.10
2022-07-29T14:00:13.544Z,35.10
2022-07-29T14:02:41.580Z,35.00
2022-07-29T14:05:11.177Z,35.00
2022-07-29T14:07:42.943Z,35.20
2022-07-29T14:10:11.263Z,35.20
2022-07-29T14:12:39.448Z,35.20
2022-07-29T14:15:07.805Z,35.20
2022-07-29T14:17:35.947Z,35.10
2022-07-29T14:20:04.461Z,35.10
2022-07-29T14:22:33.074Z,35.10
2022-07-29T14:25:14.671Z,34.90
2022-07-29T14:27:45.456Z,34.80
2022-07-29T14:30:17.786Z,34.80
2022-07-29T14:32:46.677Z,34.70
2022-07-29T14:35:17.572Z,34.70
2022-07-29T14:37:45.697Z,34.60
2022-07-29T14:40:13.780Z,34.50
2022-07-29T14:42:41.938Z,34.50
2022-07-29T14:45:10.784Z,34.50
2022-07-29T14:47:39.414Z,34.60
2022-07-29T14:50:07.855Z,34.80
2022-07-29T14:52:35.927Z,35.60
2022-07-29T14:55:04.948Z,36.40
2022-07-29T14:57:45.781Z,36.90
2022-07-29T15:00:14.078Z,37.30
2022-07-29T15:03:00.909Z,37.30
2022-07-29T15:05:30.255Z,36.70
2022-07-29T15:07:59.594Z,35.90
2022-07-29T15:10:28.479Z,35.20
2022-07-29T15:13:00.638Z,34.70
2022-07-29T15:15:31.595Z,34.40
2022-07-29T15:17:59.750Z,34.00
2022-07-29T15:20:28.976Z,33.80
2022-07-29T15:22:59.809Z,33.70
2022-07-29T15:25:28.096Z,33.50
2022-07-29T15:28:01.263Z,33.40
2022-07-29T15:30:33.154Z,33.30
2022-07-29T15:33:03.190Z,33.10
2022-07-29T15:35:31.673Z,33.00
2022-07-29T15:37:59.778Z,32.90
2022-07-29T15:40:28.018Z,32.60
2022-07-29T15:42:56.057Z,32.50
2022-07-29T15:45:24.611Z,32.20
2022-07-29T15:47:52.806Z,32.20
2022-07-29T15:50:21.326Z,32.10
2022-07-29T15:52:50.845Z,32.20
2022-07-29T15:55:20.433Z,32.30
2022-07-29T15:57:51.612Z,32.10
2022-07-29T16:00:20.045Z,32.00
2022-07-29T16:02:48.001Z,31.80
2022-07-29T16:05:20.575Z,31.60
2022-07-29T16:07:50.670Z,31.40
2022-07-29T16:10:19.111Z,31.20
2022-07-29T16:12:51.290Z,31.00
2022-07-29T16:15:23.037Z,30.90
2022-07-29T16:17:51.184Z,30.70
2022-07-29T16:20:19.263Z,30.60
2022-07-29T16:22:52.261Z,30.50
2022-07-29T16:25:38.344Z,30.40
2022-07-29T16:28:11.548Z,30.40
2022-07-29T16:30:39.506Z,30.30
2022-07-29T16:33:09.955Z,30.20
2022-07-29T16:35:40.630Z,30.10
2022-07-29T16:38:08.655Z,30.00
2022-07-29T16:40:39.290Z,29.90
2022-07-29T16:43:09.716Z,29.80
2022-07-29T16:45:46.248Z,29.70
2022-07-29T16:48:15.240Z,29.70
2022-07-29T16:50:46.826Z,29.70
2022-07-29T16:53:17.323Z,29.60
2022-07-29T16:55:55.808Z,29.50
2022-07-29T16:58:24.958Z,29.40
2022-07-29T17:00:53.406Z,29.30
2022-07-29T17:03:21.482Z,29.20
2022-07-29T17:05:52.360Z,29.00
2022-07-29T17:08:25.140Z,29.00
2022-07-29T17:10:57.099Z,28.90
2022-07-29T17:13:25.044Z,28.90
2022-07-29T17:15:55.504Z,28.80
2022-07-29T17:18:27.151Z,28.80
2022-07-29T17:20:57.934Z,28.70
2022-07-29T17:23:28.236Z,28.70
2022-07-29T17:25:56.274Z,28.60
2022-07-29T17:28:24.273Z,28.50
2022-07-29T17:30:55.450Z,28.50
2022-07-29T17:33:30.807Z,28.40
2022-07-29T17:36:20.219Z,28.20
2022-07-29T17:38:50.944Z,28.20
2022-07-29T17:41:20.726Z,28.20
2022-07-29T17:43:53.110Z,28.20
2022-07-29T17:46:23.151Z,28.20
2022-07-29T17:48:51.190Z,28.10
2022-07-29T17:51:22.397Z,28.00
2022-07-29T17:53:50.725Z,27.90
2022-07-29T17:56:18.806Z,27.80
2022-07-29T17:58:49.001Z,27.70
2022-07-29T18:01:19.926Z,27.60
2022-07-29T18:03:48.229Z,27.40
2022-07-29T18:06:27.461Z,27.40
2022-07-29T18:08:58.231Z,27.40
2022-07-29T18:11:34.584Z,27.30
2022-07-29T18:14:09.617Z,27.20
2022-07-29T18:16:39.711Z,27.20
2022-07-29T18:19:19.476Z,27.10
2022-07-29T18:21:54.071Z,27.10
2022-07-29T18:24:25.914Z,27.00
2022-07-29T18:26:56.943Z,27.00
2022-07-29T18:29:29.689Z,26.90
2022-07-29T18:32:00.168Z,26.80
2022-07-29T18:34:31.923Z,26.70
2022-07-29T18:37:00.805Z,26.70
2022-07-29T18:39:29.894Z,26.70
2022-07-29T18:41:58.785Z,26.60
2022-07-29T18:44:28.969Z,26.50
2022-07-29T18:46:58.568Z,26.50
2022-07-29T18:49:28.066Z,26.40
2022-07-29T18:51:57.362Z,26.40
2022-07-29T18:54:26.084Z,26.30
2022-07-29T18:56:54.153Z,26.30
2022-07-29T18:59:22.378Z,26.10
2022-07-29T19:01:50.601Z,26.10
2022-07-29T19:04:18.892Z,26.00
2022-07-29T19:06:50.658Z,25.90
2022-07-29T19:09:20.701Z,25.70
2022-07-29T19:11:55.578Z,25.70
2022-07-29T19:14:24.395Z,25.60
2022-07-29T19:16:52.472Z,25.50
2022-07-29T19:19:22.552Z,25.40
2022-07-29T19:21:51.605Z,25.40
2022-07-29T19:24:20.281Z,25.30
2022-07-29T19:26:48.277Z,25.20
2022-07-29T19:29:16.662Z,25.10
2022-07-29T19:31:44.898Z,25.00
2022-07-29T19:34:13.149Z,24.80
2022-07-29T19:36:43.427Z,24.70
2022-07-29T19:39:15.737Z,24.70
2022-07-29T19:41:44.479Z,24.70
2022-07-29T19:44:16.948Z,24.60
2022-07-29T19:46:47.543Z,24.60
2022-07-29T19:49:18.036Z,24.40
2022-07-29T19:51:49.905Z,24.40
2022-07-29T19:54:20.753Z,24.30
2022-07-29T19:56:48.864Z,24.30
2022-07-29T19:59:18.094Z,24.20
2022-07-29T20:01:57.808Z,24.20
2022-07-29T20:04:28.704Z,24.10
2022-07-29T20:07:01.707Z,24.20
2022-07-29T20:09:32.620Z,24.10
2022-07-29T20:12:05.373Z,24.00
2022-07-29T20:14:33.423Z,24.00
2022-07-29T20:17:04.405Z,24.20
2022-07-29T20:19:33.632Z,24.20
2022-07-29T20:22:01.710Z,24.20
2022-07-29T20:24:30.125Z,24.10
2022-07-29T20:26:58.482Z,24.10
2022-07-29T20:29:29.629Z,24.00
2022-07-29T20:31:58.683Z,24.00
2022-07-29T20:34:26.935Z,24.00
2022-07-29T20:37:01.995Z,23.90
2022-07-29T20:39:30.779Z,23.90
2022-07-29T20:42:01.371Z,23.80
2022-07-29T20:44:29.374Z,23.80
2022-07-29T20:46:57.898Z,23.70
2022-07-29T20:49:28.067Z,23.70
2022-07-29T20:51:56.487Z,23.60
2022-07-29T20:54:24.947Z,23.70
2022-07-29T20:56:55.293Z,23.60
2022-07-29T20:59:26.711Z,23.70
2022-07-29T21:01:57.317Z,23.60
2022-07-29T21:04:30.928Z,23.60
2022-07-29T21:07:01.525Z,23.60
2022-07-29T21:09:32.036Z,23.40
2022-07-29T21:12:01.000Z,23.40
2022-07-29T21:14:41.055Z,23.40
2022-07-29T21:17:09.081Z,23.40
2022-07-29T21:19:37.220Z,23.40
2022-07-29T21:22:06.192Z,23.30
2022-07-29T21:24:34.306Z,23.30
2022-07-29T21:27:21.900Z,23.30
2022-07-29T21:29:52.979Z,23.30
2022-07-29T21:32:27.437Z,23.20
2022-07-29T21:34:58.312Z,23.10
2022-07-29T21:37:26.555Z,23.20
2022-07-29T21:39:54.510Z,23.20
2022-07-29T21:42:25.139Z,23.10
2022-07-29T21:44:53.260Z,23.20
2022-07-29T21:47:23.541Z,23.10
2022-07-29T21:49:53.312Z,23.00
2022-07-29T21:52:23.531Z,23.00
2022-07-29T21:54:51.869Z,23.00
2022-07-29T21:57:20.244Z,22.90
2022-07-29T21:59:48.409Z,22.90
2022-07-29T22:02:16.425Z,22.80
2022-07-29T22:04:44.473Z,22.70
2022-07-29T22:07:12.632Z,22.70
2022-07-29T22:09:42.944Z,22.70
2022-07-29T22:12:10.941Z,22.70
2022-07-29T22:14:38.930Z,22.70
2022-07-29T22:17:06.927Z,22.60
2022-07-29T22:19:34.958Z,22.50
2022-07-29T22:22:02.968Z,22.50
2022-07-29T22:24:30.962Z,22.50
2022-07-29T22:26:59.111Z,22.40
2022-07-29T22:29:30.291Z,22.30
2022-07-29T22:31:58.291Z,22.30
2022-07-29T22:34:26.395Z,22.20
2022-07-29T22:37:08.658Z,22.10
2022-07-29T22:39:38.884Z,22.10
2022-07-29T22:42:07.260Z,22.00
2022-07-29T22:44:35.275Z,22.00
2022-07-29T22:47:06.657Z,22.00
2022-07-29T22:49:34.905Z,21.90
2022-07-29T22:52:03.006Z,21.80
2022-07-29T23:01:48.792Z,21.60
2022-07-29T23:04:17.351Z,21.50
2022-07-29T23:06:45.269Z,21.50
2022-07-29T23:09:16.727Z,21.50
2022-07-29T23:11:47.650Z,21.50
2022-07-29T23:14:16.520Z,21.50
2022-07-29T23:16:47.673Z,21.40
2022-07-29T23:19:15.869Z,21.50
2022-07-29T23:21:44.701Z,21.40
2022-07-29T23:24:13.643Z,21.30
2022-07-29T23:26:42.524Z,21.30
2022-07-29T23:29:13.044Z,21.30
2022-07-29T23:31:47.797Z,21.30
2022-07-29T23:34:16.633Z,21.20
2022-07-29T23:36:47.580Z,21.20
2022-07-29T23:39:15.677Z,21.20
2022-07-29T23:41:47.761Z,21.10
2022-07-29T23:44:15.711Z,21.10
2022-07-29T23:46:44.647Z,21.00
2022-07-29T23:49:15.891Z,20.90
2022-07-29T23:51:44.007Z,21.00
2022-07-29T23:54:15.681Z,20.90
2022-07-29T23:56:43.678Z,20.90
2022-07-29T23:59:19.326Z,20.90
